• Join FlightAware (Why Join?)
  • Login
  • US Flag 
04:48AM EDT


 

Airport Tracker/Info


-or-


 

Live Flight TrackerFlight Track Log ✈ SWA1457 ✈ 06-Oct-2013 ✈ KPHX - KSFO

Flight Track Log - Related Links

Times and Time Zones

All times are in EDT time to prevent confusion due to time zone crossing. See the SWA1457 flight status page for this flight to view local times or setup timezone preferences in your user account.

Time Position Orientation Groundspeed Altitude Reporting Facility
EDT Latitude Longitude Course Direction KTS MPH feet Rate Location/Type
02:42PM 33.4333 -111.9333 91° East 203 234 3,200  Level Phoenix TRACON
02:43PM 33.4167 -111.8667 107° East 229 264 6,400 2,640 Climbing Phoenix TRACON
02:44PM 33.3711 -111.8839 198° South 259 298 8,500 1,980 Climbing Albuquerque Center
02:45PM 33.3539 -111.9789 258° West 294 338 10,500 1,980 Climbing Albuquerque Center
02:46PM 33.3672 -112.0939 278° West 348 400 12,600 2,220 Climbing Albuquerque Center
02:47PM 33.3808 -112.2119 278° West 356 410 15,100 2,280 Climbing Albuquerque Center
02:48PM 33.3950 -112.3336 278° West 367 422 17,400 1,860 Climbing Albuquerque Center
02:49PM 33.4103 -112.4586 278° West 377 434 19,000 1,800 Climbing Albuquerque Center
02:50PM 33.4272 -112.6069 278° West 391 450 21,200 1,920 Climbing Albuquerque Center
02:51PM 33.4425 -112.7367 278° West 395 455 23,000 1,440 Climbing Albuquerque Center
02:52PM 33.4608 -112.8681 280° West 398 458 24,200 1,320 Climbing Albuquerque Center
02:53PM 33.4878 -113.0036 283° West 412 474 25,800 1,440 Climbing Albuquerque Center
02:54PM 33.5189 -113.1656 283° West 418 481 27,200 1,380 Climbing Albuquerque Center
02:55PM 33.5461 -113.3058 283° West 428 493 28,700 1,500 Climbing Albuquerque Center
02:56PM 33.5722 -113.4428 283° West 427 491 30,300 1,500 Climbing Albuquerque Center
02:57PM 33.5969 -113.5781 282° West 421 484 31,800 1,500 Climbing Albuquerque Center
02:58PM 33.6236 -113.7206 283° West 408 470 33,500 1,500 Climbing Albuquerque Center
02:59PM 33.6469 -113.8492 282° West 399 459 35,000 1,020 Climbing Albuquerque Center
03:00PM 33.6708 -113.9733 283° West 387 445 35,700 480 Climbing Albuquerque Center
03:01PM 33.6939 -114.1011 282° West 389 448 36,000 120 Climbing Albuquerque Center
03:02PM 33.7186 -114.2397 282° West 388 447 36,000  Level Albuquerque Center
03:03PM 33.7458 -114.3628 285° West 384 442 36,000  Level Albuquerque Center
03:04PM 33.7911 -114.4772 295° West 380 437 36,000  Level Albuquerque Center
03:05PM 33.8492 -114.6353 294° West 379 436 36,000  Level Los Angeles Center
03:07PM 33.8931 -114.7522 294° West 383 441 36,000  Level Los Angeles Center
03:08PM 33.9344 -114.8692 293° West 382 440 36,000  Level Los Angeles Center
03:09PM 33.9769 -114.9872 293° West 384 442 36,000  Level Los Angeles Center
03:10PM 34.0281 -115.1283 294° West 385 443 36,000  Level Los Angeles Center
03:11PM 34.0719 -115.2478 294° West 388 447 36,000  Level Los Angeles Center
03:12PM 34.1131 -115.3653 293° West 384 442 36,000  Level Los Angeles Center
03:13PM 34.1561 -115.4847 294° West 388 447 36,000  Level Los Angeles Center
03:14PM 34.1983 -115.6036 293° West 388 447 36,000  Level Los Angeles Center
03:15PM 34.2494 -115.7478 293° West 389 448 36,000  Level Los Angeles Center
03:16PM 34.2917 -115.8689 293° West 390 449 36,000  Level Los Angeles Center
03:17PM 34.3347 -115.9925 293° West 392 451 36,000  Level Los Angeles Center
03:18PM 34.3775 -116.1139 293° West 392 451 36,000  Level Los Angeles Center
03:19PM 34.4200 -116.2342 293° West 390 449 36,000  Level Los Angeles Center
03:20PM 34.4619 -116.3556 293° West 391 450 36,000  Level Los Angeles Center
03:21PM 34.5042 -116.4778 293° West 392 451 36,000  Level Los Angeles Center
03:22PM 34.5547 -116.6247 293° West 393 452 36,000  Level Los Angeles Center
03:23PM 34.5969 -116.7481 293° West 397 457 36,000  Level Los Angeles Center
03:24PM 34.6381 -116.8689 292° West 391 450 36,000  Level Los Angeles Center
03:25PM 34.6811 -116.9931 293° West 396 456 36,000  Level Los Angeles Center
03:26PM 34.7225 -117.1158 292° West 393 452 36,000  Level Los Angeles Center
03:27PM 34.7631 -117.2397 292° West 394 453 36,000  Level Los Angeles Center
03:28PM 34.8131 -117.3906 292° West 398 458 36,000  Level Los Angeles Center
03:29PM 34.8544 -117.5161 292° West 398 458 36,000  Level Los Angeles Center
03:30PM 34.8958 -117.6444 291° West 400 460 36,000  Level Los Angeles Center
03:31PM 34.9406 -117.7725 293° West 403 464 36,000  Level Los Angeles Center
03:32PM 34.9825 -117.8975 292° West 395 455 36,000  Level Los Angeles Center
03:33PM 35.0244 -118.0222 292° West 398 458 36,000  Level Los Angeles Center
03:34PM 35.0658 -118.1486 292° West 401 461 36,000  Level Los Angeles Center
03:36PM 35.1072 -118.2736 292° West 397 457 36,000  Level Los Angeles Center
03:37PM 35.1558 -118.4242 292° West 397 457 36,000  Level Los Angeles Center
03:38PM 35.1922 -118.5331 292° West 395 455 36,000  Level Los Angeles Center
03:39PM 35.2400 -118.6822 291° West 393 452 36,000  Level Los Angeles Center
03:40PM 35.2811 -118.8069 292° West 396 456 36,000  Level Los Angeles Center
03:41PM 35.3208 -118.9303 292° West 392 451 36,000  Level Los Angeles Center
03:42PM 35.3553 -119.0558 289° West 392 451 36,000  Level Los Angeles Center
03:43PM 35.3886 -119.1819 288° West 391 450 36,000  Level Los Angeles Center
03:44PM 35.4225 -119.3072 288° West 389 448 36,000  Level Los Angeles Center
03:45PM 35.4575 -119.4583 286° West 386 444 36,000  Level Los Angeles Center
03:46PM 35.4903 -119.5842 288° West 387 445 36,000  Level Los Angeles Center
03:47PM 35.5231 -119.7106 288° West 390 449 36,000  Level Los Angeles Center
03:48PM 35.5553 -119.8361 288° West 388 447 36,000  Level Los Angeles Center
03:49PM 35.5875 -119.9619 288° West 388 447 36,000  Level Los Angeles Center
03:50PM 35.6253 -120.1131 287° West 390 449 36,000  Level Los Angeles Center
03:51PM 35.6553 -120.2319 287° West 390 449 36,000  Level Los Angeles Center
03:52PM 35.6894 -120.3644 288° West 391 450 36,000 -480 Level Los Angeles Center
03:53PM 35.7503 -120.4764 304° West 407 468 35,100 -1,020 Descending Los Angeles Center
03:54PM 35.8239 -120.5836 310° West 411 473 33,900 -540 Descending Los Angeles Center
03:55PM 35.9147 -120.7153 310° West 422 486 34,000  Climbing Oakland Center
03:56PM 35.9892 -120.8261 310° West 421 484 34,000  Level Oakland Center
03:57PM 36.0653 -120.9394 310° West 428 493 34,000 -540 Level Oakland Center
03:58PM 36.1422 -121.0528 310° West 431 496 32,900 -1,080 Descending Oakland Center
03:59PM 36.2192 -121.1669 310° West 434 499 31,900 -1,200 Descending Oakland Center
04:00PM 36.3136 -121.3061 310° West 441 507 30,500 -1,200 Descending Oakland Center
04:01PM 36.3903 -121.4258 309° West 444 511 29,500 -1,200 Descending Oakland Center
04:02PM 36.4697 -121.5428 310° West 445 512 28,100 -1,620 Descending Oakland Center
04:03PM 36.5467 -121.6603 309° West 440 506 26,200 -2,460 Descending Oakland Center
04:04PM 36.6333 -121.7833 311° West 436 502 23,100 -3,360 Descending Northern Cal TRACON
04:05PM 36.7000 -121.9000 306° West 429 494 19,500 -3,480 Descending Northern Cal TRACON
04:06PM 36.8000 -121.9833 326° Northwest 448 516 16,300 -2,820 Descending Northern Cal TRACON
04:07PM 36.9167 -122.0167 347° North 419 482 13,900 -2,580 Descending Northern Cal TRACON
04:08PM 37.0333 -122.0333 353° North 412 474 11,200 -1,920 Descending Northern Cal TRACON
04:10PM 37.1392 -122.0681 345° North 398 458 9,800 -1,020 Descending Oakland Center
04:11PM 37.2311 -122.0928 348° North 344 396 9,000 -840 Descending Oakland Center
04:12PM 37.3114 -122.1147 348° North 304 350 8,200 -1,080 Descending Oakland Center
04:12PM 37.3833 -122.1333 348° North 271 312 7,200 -1,260 Descending Northern Cal TRACON
04:13PM 37.4500 -122.1333 360° North 246 283 6,100 -1,200 Descending Northern Cal TRACON
04:14PM 37.5000 -122.1500 345° North 220 253 4,900 -1,200 Descending Northern Cal TRACON
04:15PM 37.5500 -122.2000 322° Northwest 180 207 3,800 -1,320 Descending Northern Cal TRACON
04:16PM 37.5667 -122.2333 302° West 152 175 2,300 -1,320 Descending Northern Cal TRACON
04:17PM 37.5833 -122.2833 293° West 154 177 1,200 -960 Descending Northern Cal TRACON
04:18PM 37.6000 -122.3333 293° West 150 173 400 -840 Descending Northern Cal TRACON
04:21PM 37.6167 -122.3667 322° Northwest  Level FlightAware Approximate
04:28PM 37.6191 -122.3752 322° Northwest  Level Estimated